sensor_id;sensor_type;location;lat;lon;timestamp;P1;durP1;ratioP1;P2;durP2;ratioP2
40707;SDS011;26392;42.696;23.350;2023-03-14T00:01:20;15.43;;;6.07;;
40707;SDS011;26392;42.696;23.350;2023-03-14T00:03:46;11.55;;;5.65;;
40707;SDS011;26392;42.696;23.350;2023-03-14T00:06:12;13.80;;;6.13;;
40707;SDS011;26392;42.696;23.350;2023-03-14T00:08:38;12.48;;;6.20;;
40707;SDS011;26392;42.696;23.350;2023-03-14T00:11:10;14.20;;;5.85;;
40707;SDS011;26392;42.696;23.350;2023-03-14T00:13:37;13.60;;;6.43;;
40707;SDS011;26392;42.696;23.350;2023-03-14T00:16:03;13.32;;;6.10;;
40707;SDS011;26392;42.696;23.350;2023-03-14T00:18:33;13.82;;;5.90;;
40707;SDS011;26392;42.696;23.350;2023-03-14T00:21:00;11.77;;;5.45;;
40707;SDS011;26392;42.696;23.350;2023-03-14T00:23:27;15.30;;;5.35;;
40707;SDS011;26392;42.696;23.350;2023-03-14T00:25:53;9.88;;;5.00;;
40707;SDS011;26392;42.696;23.350;2023-03-14T00:28:19;11.10;;;4.95;;
40707;SDS011;26392;42.696;23.350;2023-03-14T00:30:44;7.95;;;4.40;;
40707;SDS011;26392;42.696;23.350;2023-03-14T00:33:09;11.18;;;4.68;;
40707;SDS011;26392;42.696;23.350;2023-03-14T00:35:35;8.38;;;4.55;;
40707;SDS011;26392;42.696;23.350;2023-03-14T00:38:00;13.60;;;5.25;;
40707;SDS011;26392;42.696;23.350;2023-03-14T00:40:25;12.60;;;5.20;;
40707;SDS011;26392;42.696;23.350;2023-03-14T00:42:51;11.88;;;5.65;;
40707;SDS011;26392;42.696;23.350;2023-03-14T00:45:16;12.82;;;4.75;;
40707;SDS011;26392;42.696;23.350;2023-03-14T00:47:42;8.98;;;5.40;;
40707;SDS011;26392;42.696;23.350;2023-03-14T00:50:10;11.20;;;4.80;;
40707;SDS011;26392;42.696;23.350;2023-03-14T00:52:36;8.25;;;4.28;;
40707;SDS011;26392;42.696;23.350;2023-03-14T00:55:01;8.52;;;4.43;;
40707;SDS011;26392;42.696;23.350;2023-03-14T00:57:27;9.05;;;4.40;;
40707;SDS011;26392;42.696;23.350;2023-03-14T00:59:53;10.05;;;3.72;;
40707;SDS011;26392;42.696;23.350;2023-03-14T01:02:18;9.05;;;4.70;;
40707;SDS011;26392;42.696;23.350;2023-03-14T01:04:44;6.85;;;3.60;;
40707;SDS011;26392;42.696;23.350;2023-03-14T01:07:09;8.18;;;4.13;;
40707;SDS011;26392;42.696;23.350;2023-03-14T01:09:34;8.35;;;3.75;;
40707;SDS011;26392;42.696;23.350;2023-03-14T01:12:00;8.43;;;4.85;;
40707;SDS011;26392;42.696;23.350;2023-03-14T01:14:25;8.68;;;3.92;;
40707;SDS011;26392;42.696;23.350;2023-03-14T01:16:51;6.68;;;3.88;;
40707;SDS011;26392;42.696;23.350;2023-03-14T01:19:16;8.00;;;4.28;;
40707;SDS011;26392;42.696;23.350;2023-03-14T01:21:41;8.43;;;3.92;;
40707;SDS011;26392;42.696;23.350;2023-03-14T01:24:07;7.95;;;3.80;;
40707;SDS011;26392;42.696;23.350;2023-03-14T01:26:33;6.32;;;3.50;;
40707;SDS011;26392;42.696;23.350;2023-03-14T01:28:59;9.40;;;4.15;;
40707;SDS011;26392;42.696;23.350;2023-03-14T01:31:25;8.75;;;4.20;;
40707;SDS011;26392;42.696;23.350;2023-03-14T01:33:51;8.25;;;4.35;;
40707;SDS011;26392;42.696;23.350;2023-03-14T01:36:17;11.18;;;4.68;;
40707;SDS011;26392;42.696;23.350;2023-03-14T01:38:42;10.25;;;4.10;;
40707;SDS011;26392;42.696;23.350;2023-03-14T01:41:11;10.35;;;4.60;;
40707;SDS011;26392;42.696;23.350;2023-03-14T01:43:39;8.48;;;4.50;;
40707;SDS011;26392;42.696;23.350;2023-03-14T01:51:11;8.45;;;4.20;;
40707;SDS011;26392;42.696;23.350;2023-03-14T01:53:41;10.52;;;4.75;;
40707;SDS011;26392;42.696;23.350;2023-03-14T01:56:09;11.20;;;4.72;;
40707;SDS011;26392;42.696;23.350;2023-03-14T01:58:37;10.57;;;4.40;;
40707;SDS011;26392;42.696;23.350;2023-03-14T02:01:04;12.90;;;4.47;;
40707;SDS011;26392;42.696;23.350;2023-03-14T02:03:30;8.95;;;4.10;;
40707;SDS011;26392;42.696;23.350;2023-03-14T02:06:03;8.73;;;3.92;;
40707;SDS011;26392;42.696;23.350;2023-03-14T02:08:32;8.85;;;4.50;;
40707;SDS011;26392;42.696;23.350;2023-03-14T02:11:00;8.82;;;4.50;;
40707;SDS011;26392;42.696;23.350;2023-03-14T02:13:25;9.35;;;4.38;;
40707;SDS011;26392;42.696;23.350;2023-03-14T02:15:51;9.60;;;5.05;;
40707;SDS011;26392;42.696;23.350;2023-03-14T02:18:17;9.82;;;4.03;;
40707;SDS011;26392;42.696;23.350;2023-03-14T02:23:15;11.65;;;5.00;;
40707;SDS011;26392;42.696;23.350;2023-03-14T02:28:15;12.68;;;5.68;;
40707;SDS011;26392;42.696;23.350;2023-03-14T02:30:41;10.60;;;5.47;;
40707;SDS011;26392;42.696;23.350;2023-03-14T02:33:11;12.80;;;6.03;;
40707;SDS011;26392;42.696;23.350;2023-03-14T02:38:27;14.65;;;6.78;;
40707;SDS011;26392;42.696;23.350;2023-03-14T02:41:07;15.70;;;6.47;;
40707;SDS011;26392;42.696;23.350;2023-03-14T02:43:33;15.63;;;6.30;;
40707;SDS011;26392;42.696;23.350;2023-03-14T02:45:59;16.73;;;6.25;;
40707;SDS011;26392;42.696;23.350;2023-03-14T02:48:27;19.42;;;7.00;;
40707;SDS011;26392;42.696;23.350;2023-03-14T02:50:57;15.23;;;6.38;;
40707;SDS011;26392;42.696;23.350;2023-03-14T02:53:26;15.98;;;6.82;;
40707;SDS011;26392;42.696;23.350;2023-03-14T02:55:54;14.35;;;6.43;;
40707;SDS011;26392;42.696;23.350;2023-03-14T02:58:19;19.23;;;8.05;;
40707;SDS011;26392;42.696;23.350;2023-03-14T03:00:45;19.88;;;8.32;;
40707;SDS011;26392;42.696;23.350;2023-03-14T03:03:11;18.77;;;8.05;;
40707;SDS011;26392;42.696;23.350;2023-03-14T03:05:36;16.30;;;7.57;;
40707;SDS011;26392;42.696;23.350;2023-03-14T03:08:02;17.55;;;8.45;;
40707;SDS011;26392;42.696;23.350;2023-03-14T03:10:28;19.95;;;8.20;;
40707;SDS011;26392;42.696;23.350;2023-03-14T03:12:54;19.52;;;8.27;;
40707;SDS011;26392;42.696;23.350;2023-03-14T03:15:20;17.85;;;7.78;;
40707;SDS011;26392;42.696;23.350;2023-03-14T03:17:45;18.80;;;8.73;;
40707;SDS011;26392;42.696;23.350;2023-03-14T03:20:10;24.23;;;8.23;;
40707;SDS011;26392;42.696;23.350;2023-03-14T03:22:37;22.55;;;9.63;;
40707;SDS011;26392;42.696;23.350;2023-03-14T03:25:03;22.15;;;9.50;;
40707;SDS011;26392;42.696;23.350;2023-03-14T03:27:31;19.80;;;9.68;;
40707;SDS011;26392;42.696;23.350;2023-03-14T03:29:57;31.73;;;11.55;;
40707;SDS011;26392;42.696;23.350;2023-03-14T03:32:23;22.88;;;10.07;;
40707;SDS011;26392;42.696;23.350;2023-03-14T03:34:49;25.63;;;9.93;;
40707;SDS011;26392;42.696;23.350;2023-03-14T03:37:14;24.80;;;11.02;;
40707;SDS011;26392;42.696;23.350;2023-03-14T03:39:40;25.05;;;11.00;;
40707;SDS011;26392;42.696;23.350;2023-03-14T03:42:05;28.08;;;11.55;;
40707;SDS011;26392;42.696;23.350;2023-03-14T03:44:31;23.60;;;11.80;;
40707;SDS011;26392;42.696;23.350;2023-03-14T03:46:56;32.28;;;12.02;;
40707;SDS011;26392;42.696;23.350;2023-03-14T03:49:21;27.98;;;12.27;;
40707;SDS011;26392;42.696;23.350;2023-03-14T03:51:47;30.50;;;12.70;;
40707;SDS011;26392;42.696;23.350;2023-03-14T03:54:12;30.58;;;12.95;;
40707;SDS011;26392;42.696;23.350;2023-03-14T03:56:38;24.90;;;12.07;;
40707;SDS011;26392;42.696;23.350;2023-03-14T03:59:03;29.00;;;12.32;;
40707;SDS011;26392;42.696;23.350;2023-03-14T04:01:29;29.48;;;12.02;;
40707;SDS011;26392;42.696;23.350;2023-03-14T04:03:54;27.92;;;11.13;;
40707;SDS011;26392;42.696;23.350;2023-03-14T04:06:19;31.58;;;12.80;;
40707;SDS011;26392;42.696;23.350;2023-03-14T04:08:45;31.70;;;12.70;;
40707;SDS011;26392;42.696;23.350;2023-03-14T04:11:10;27.73;;;12.38;;
40707;SDS011;26392;42.696;23.350;2023-03-14T04:13:36;29.33;;;12.30;;
40707;SDS011;26392;42.696;23.350;2023-03-14T04:16:01;30.17;;;12.07;;
40707;SDS011;26392;42.696;23.350;2023-03-14T04:18:27;30.92;;;12.57;;
40707;SDS011;26392;42.696;23.350;2023-03-14T04:20:55;31.65;;;11.50;;
40707;SDS011;26392;42.696;23.350;2023-03-14T04:23:22;26.02;;;12.30;;
40707;SDS011;26392;42.696;23.350;2023-03-14T04:25:52;29.10;;;12.93;;
40707;SDS011;26392;42.696;23.350;2023-03-14T04:28:18;21.10;;;11.73;;
40707;SDS011;26392;42.696;23.350;2023-03-14T04:30:43;26.33;;;12.55;;
40707;SDS011;26392;42.696;23.350;2023-03-14T04:33:09;26.73;;;12.20;;
40707;SDS011;26392;42.696;23.350;2023-03-14T04:35:35;22.17;;;11.40;;
40707;SDS011;26392;42.696;23.350;2023-03-14T04:38:01;29.00;;;12.05;;
40707;SDS011;26392;42.696;23.350;2023-03-14T04:40:27;25.13;;;10.80;;
40707;SDS011;26392;42.696;23.350;2023-03-14T04:42:53;26.27;;;12.75;;
40707;SDS011;26392;42.696;23.350;2023-03-14T04:45:18;32.83;;;12.95;;
40707;SDS011;26392;42.696;23.350;2023-03-14T04:47:44;23.23;;;11.75;;
40707;SDS011;26392;42.696;23.350;2023-03-14T04:50:09;25.30;;;11.68;;
40707;SDS011;26392;42.696;23.350;2023-03-14T04:52:35;32.70;;;12.45;;
40707;SDS011;26392;42.696;23.350;2023-03-14T04:55:01;28.38;;;13.00;;
40707;SDS011;26392;42.696;23.350;2023-03-14T04:57:26;30.75;;;13.32;;
40707;SDS011;26392;42.696;23.350;2023-03-14T04:59:52;31.88;;;13.25;;
40707;SDS011;26392;42.696;23.350;2023-03-14T05:02:17;29.05;;;13.32;;
40707;SDS011;26392;42.696;23.350;2023-03-14T05:04:43;33.42;;;14.43;;
40707;SDS011;26392;42.696;23.350;2023-03-14T05:07:08;31.42;;;13.77;;
40707;SDS011;26392;42.696;23.350;2023-03-14T05:09:33;35.28;;;14.52;;
40707;SDS011;26392;42.696;23.350;2023-03-14T05:11:59;29.75;;;13.27;;
40707;SDS011;26392;42.696;23.350;2023-03-14T05:14:24;36.58;;;14.60;;
40707;SDS011;26392;42.696;23.350;2023-03-14T05:16:50;33.72;;;13.32;;
40707;SDS011;26392;42.696;23.350;2023-03-14T05:19:15;46.97;;;18.02;;
40707;SDS011;26392;42.696;23.350;2023-03-14T05:21:40;46.47;;;18.75;;
40707;SDS011;26392;42.696;23.350;2023-03-14T05:24:06;48.60;;;18.65;;
40707;SDS011;26392;42.696;23.350;2023-03-14T05:26:31;46.25;;;17.80;;
40707;SDS011;26392;42.696;23.350;2023-03-14T05:28:57;46.55;;;17.50;;
40707;SDS011;26392;42.696;23.350;2023-03-14T05:31:22;35.72;;;15.85;;
40707;SDS011;26392;42.696;23.350;2023-03-14T05:33:48;42.47;;;15.85;;
40707;SDS011;26392;42.696;23.350;2023-03-14T05:36:13;35.67;;;15.27;;
40707;SDS011;26392;42.696;23.350;2023-03-14T05:38:38;38.42;;;14.95;;
40707;SDS011;26392;42.696;23.350;2023-03-14T05:41:04;33.88;;;13.65;;
40707;SDS011;26392;42.696;23.350;2023-03-14T05:43:29;26.92;;;12.95;;
40707;SDS011;26392;42.696;23.350;2023-03-14T05:45:55;32.47;;;14.65;;
40707;SDS011;26392;42.696;23.350;2023-03-14T05:48:20;30.48;;;13.95;;
40707;SDS011;26392;42.696;23.350;2023-03-14T05:50:46;35.83;;;13.55;;
40707;SDS011;26392;42.696;23.350;2023-03-14T05:53:12;29.23;;;13.15;;
40707;SDS011;26392;42.696;23.350;2023-03-14T05:55:38;30.80;;;13.07;;
40707;SDS011;26392;42.696;23.350;2023-03-14T05:58:04;32.40;;;13.20;;
40707;SDS011;26392;42.696;23.350;2023-03-14T06:00:29;30.95;;;13.20;;
40707;SDS011;26392;42.696;23.350;2023-03-14T06:02:55;34.45;;;15.25;;
40707;SDS011;26392;42.696;23.350;2023-03-14T06:05:20;29.73;;;14.52;;
40707;SDS011;26392;42.696;23.350;2023-03-14T06:07:45;32.90;;;13.57;;
40707;SDS011;26392;42.696;23.350;2023-03-14T06:10:11;29.52;;;14.10;;
40707;SDS011;26392;42.696;23.350;2023-03-14T06:12:36;36.15;;;14.07;;
40707;SDS011;26392;42.696;23.350;2023-03-14T06:15:02;31.63;;;14.18;;
40707;SDS011;26392;42.696;23.350;2023-03-14T06:17:27;33.40;;;13.55;;
40707;SDS011;26392;42.696;23.350;2023-03-14T06:19:53;29.85;;;13.45;;
40707;SDS011;26392;42.696;23.350;2023-03-14T06:22:18;36.58;;;15.15;;
40707;SDS011;26392;42.696;23.350;2023-03-14T06:24:44;38.40;;;14.57;;
40707;SDS011;26392;42.696;23.350;2023-03-14T06:27:10;39.03;;;15.02;;
40707;SDS011;26392;42.696;23.350;2023-03-14T06:29:35;31.30;;;14.20;;
40707;SDS011;26392;42.696;23.350;2023-03-14T06:32:00;29.17;;;13.43;;
40707;SDS011;26392;42.696;23.350;2023-03-14T06:34:26;34.85;;;15.02;;
40707;SDS011;26392;42.696;23.350;2023-03-14T06:36:51;28.58;;;14.18;;
40707;SDS011;26392;42.696;23.350;2023-03-14T06:39:17;45.33;;;14.95;;
40707;SDS011;26392;42.696;23.350;2023-03-14T06:41:42;29.02;;;14.75;;
40707;SDS011;26392;42.696;23.350;2023-03-14T06:44:07;31.20;;;15.20;;
40707;SDS011;26392;42.696;23.350;2023-03-14T06:46:33;35.33;;;14.48;;
40707;SDS011;26392;42.696;23.350;2023-03-14T06:48:58;35.42;;;14.73;;
40707;SDS011;26392;42.696;23.350;2023-03-14T06:51:24;32.65;;;14.35;;
40707;SDS011;26392;42.696;23.350;2023-03-14T06:53:49;36.00;;;14.95;;
40707;SDS011;26392;42.696;23.350;2023-03-14T06:56:14;34.67;;;15.68;;
40707;SDS011;26392;42.696;23.350;2023-03-14T06:58:40;35.85;;;15.15;;
40707;SDS011;26392;42.696;23.350;2023-03-14T07:01:05;30.85;;;14.45;;
40707;SDS011;26392;42.696;23.350;2023-03-14T07:03:35;39.05;;;15.50;;
40707;SDS011;26392;42.696;23.350;2023-03-14T07:06:00;30.60;;;14.25;;
40707;SDS011;26392;42.696;23.350;2023-03-14T07:08:26;36.40;;;15.80;;
40707;SDS011;26392;42.696;23.350;2023-03-14T07:10:51;38.13;;;15.27;;
40707;SDS011;26392;42.696;23.350;2023-03-14T07:13:16;35.65;;;15.77;;
40707;SDS011;26392;42.696;23.350;2023-03-14T07:15:42;32.75;;;14.65;;
40707;SDS011;26392;42.696;23.350;2023-03-14T07:18:08;33.08;;;14.25;;
40707;SDS011;26392;42.696;23.350;2023-03-14T07:20:33;29.75;;;12.60;;
40707;SDS011;26392;42.696;23.350;2023-03-14T07:22:59;22.73;;;11.27;;
40707;SDS011;26392;42.696;23.350;2023-03-14T07:25:25;18.65;;;10.10;;
40707;SDS011;26392;42.696;23.350;2023-03-14T07:27:51;25.48;;;12.20;;
40707;SDS011;26392;42.696;23.350;2023-03-14T07:30:16;23.67;;;11.82;;
40707;SDS011;26392;42.696;23.350;2023-03-14T07:32:42;22.75;;;10.85;;
40707;SDS011;26392;42.696;23.350;2023-03-14T07:35:07;25.65;;;10.25;;
40707;SDS011;26392;42.696;23.350;2023-03-14T07:37:33;21.33;;;9.00;;
40707;SDS011;26392;42.696;23.350;2023-03-14T07:39:58;18.25;;;8.95;;
40707;SDS011;26392;42.696;23.350;2023-03-14T07:42:24;23.00;;;8.77;;
40707;SDS011;26392;42.696;23.350;2023-03-14T07:44:49;21.17;;;9.27;;
40707;SDS011;26392;42.696;23.350;2023-03-14T07:47:15;20.67;;;9.57;;
40707;SDS011;26392;42.696;23.350;2023-03-14T07:49:40;18.52;;;9.45;;
40707;SDS011;26392;42.696;23.350;2023-03-14T07:52:05;17.35;;;8.13;;
40707;SDS011;26392;42.696;23.350;2023-03-14T07:54:31;19.27;;;8.88;;
40707;SDS011;26392;42.696;23.350;2023-03-14T07:56:56;18.88;;;9.05;;
40707;SDS011;26392;42.696;23.350;2023-03-14T07:59:25;13.27;;;6.30;;
40707;SDS011;26392;42.696;23.350;2023-03-14T08:01:51;14.20;;;7.60;;
40707;SDS011;26392;42.696;23.350;2023-03-14T08:04:16;22.33;;;7.30;;
40707;SDS011;26392;42.696;23.350;2023-03-14T08:06:41;13.10;;;7.50;;
40707;SDS011;26392;42.696;23.350;2023-03-14T08:09:07;19.35;;;7.10;;
40707;SDS011;26392;42.696;23.350;2023-03-14T08:11:32;17.52;;;7.63;;
40707;SDS011;26392;42.696;23.350;2023-03-14T08:13:58;22.50;;;8.50;;
40707;SDS011;26392;42.696;23.350;2023-03-14T08:16:23;10.10;;;5.88;;
40707;SDS011;26392;42.696;23.350;2023-03-14T08:18:49;13.20;;;5.93;;
40707;SDS011;26392;42.696;23.350;2023-03-14T08:21:14;12.68;;;6.30;;
40707;SDS011;26392;42.696;23.350;2023-03-14T08:23:40;13.40;;;6.53;;
40707;SDS011;26392;42.696;23.350;2023-03-14T08:26:05;17.15;;;6.28;;
40707;SDS011;26392;42.696;23.350;2023-03-14T08:28:31;11.43;;;6.25;;
40707;SDS011;26392;42.696;23.350;2023-03-14T08:30:58;10.27;;;5.70;;
40707;SDS011;26392;42.696;23.350;2023-03-14T08:33:24;15.65;;;8.05;;
40707;SDS011;26392;42.696;23.350;2023-03-14T08:35:54;14.27;;;7.07;;
40707;SDS011;26392;42.696;23.350;2023-03-14T08:38:21;11.35;;;6.50;;
40707;SDS011;26392;42.696;23.350;2023-03-14T08:40:46;14.70;;;6.25;;
40707;SDS011;26392;42.696;23.350;2023-03-14T08:43:12;16.30;;;7.00;;
40707;SDS011;26392;42.696;23.350;2023-03-14T08:45:37;13.77;;;6.60;;
40707;SDS011;26392;42.696;23.350;2023-03-14T08:48:03;11.40;;;6.45;;
40707;SDS011;26392;42.696;23.350;2023-03-14T08:50:29;12.70;;;5.90;;
40707;SDS011;26392;42.696;23.350;2023-03-14T08:52:54;11.55;;;5.60;;
40707;SDS011;26392;42.696;23.350;2023-03-14T08:55:19;12.25;;;5.07;;
40707;SDS011;26392;42.696;23.350;2023-03-14T08:57:45;11.07;;;5.30;;
40707;SDS011;26392;42.696;23.350;2023-03-14T09:00:11;9.77;;;5.47;;
40707;SDS011;26392;42.696;23.350;2023-03-14T09:02:40;15.63;;;5.88;;
40707;SDS011;26392;42.696;23.350;2023-03-14T09:05:06;11.82;;;5.57;;
40707;SDS011;26392;42.696;23.350;2023-03-14T09:07:31;14.73;;;5.78;;
40707;SDS011;26392;42.696;23.350;2023-03-14T09:09:57;10.77;;;5.72;;
40707;SDS011;26392;42.696;23.350;2023-03-14T09:12:22;10.63;;;5.60;;
40707;SDS011;26392;42.696;23.350;2023-03-14T09:14:48;16.17;;;7.70;;
40707;SDS011;26392;42.696;23.350;2023-03-14T09:17:13;12.50;;;6.85;;
40707;SDS011;26392;42.696;23.350;2023-03-14T09:19:39;14.70;;;7.82;;
40707;SDS011;26392;42.696;23.350;2023-03-14T09:22:04;16.80;;;7.15;;
40707;SDS011;26392;42.696;23.350;2023-03-14T09:24:30;15.00;;;6.72;;
40707;SDS011;26392;42.696;23.350;2023-03-14T09:26:55;16.55;;;6.10;;
40707;SDS011;26392;42.696;23.350;2023-03-14T09:29:22;14.68;;;6.68;;
40707;SDS011;26392;42.696;23.350;2023-03-14T09:31:47;10.93;;;5.65;;
40707;SDS011;26392;42.696;23.350;2023-03-14T09:34:13;15.20;;;7.50;;
40707;SDS011;26392;42.696;23.350;2023-03-14T09:36:38;10.02;;;4.88;;
40707;SDS011;26392;42.696;23.350;2023-03-14T09:39:04;10.55;;;5.05;;
40707;SDS011;26392;42.696;23.350;2023-03-14T09:44:08;10.88;;;5.40;;
40707;SDS011;26392;42.696;23.350;2023-03-14T09:46:37;11.65;;;4.97;;
40707;SDS011;26392;42.696;23.350;2023-03-14T09:49:17;9.50;;;5.25;;
40707;SDS011;26392;42.696;23.350;2023-03-14T09:51:47;11.02;;;6.00;;
40707;SDS011;26392;42.696;23.350;2023-03-14T09:54:37;11.68;;;6.15;;
40707;SDS011;26392;42.696;23.350;2023-03-14T09:57:19;13.05;;;6.63;;
40707;SDS011;26392;42.696;23.350;2023-03-14T09:59:48;10.77;;;5.95;;
40707;SDS011;26392;42.696;23.350;2023-03-14T10:02:19;9.98;;;6.00;;
40707;SDS011;26392;42.696;23.350;2023-03-14T10:04:47;12.40;;;5.90;;
40707;SDS011;26392;42.696;23.350;2023-03-14T10:07:15;11.50;;;6.00;;
40707;SDS011;26392;42.696;23.350;2023-03-14T10:09:50;18.38;;;6.45;;
40707;SDS011;26392;42.696;23.350;2023-03-14T10:12:16;13.93;;;6.28;;
40707;SDS011;26392;42.696;23.350;2023-03-14T10:14:46;9.80;;;5.78;;
40707;SDS011;26392;42.696;23.350;2023-03-14T10:17:17;15.20;;;6.57;;
40707;SDS011;26392;42.696;23.350;2023-03-14T10:19:51;16.10;;;6.57;;
40707;SDS011;26392;42.696;23.350;2023-03-14T10:22:17;14.85;;;7.03;;
40707;SDS011;26392;42.696;23.350;2023-03-14T10:24:51;10.40;;;5.25;;
40707;SDS011;26392;42.696;23.350;2023-03-14T10:27:20;13.63;;;5.30;;
40707;SDS011;26392;42.696;23.350;2023-03-14T10:29:52;11.82;;;5.30;;
40707;SDS011;26392;42.696;23.350;2023-03-14T10:32:37;10.13;;;4.75;;
40707;SDS011;26392;42.696;23.350;2023-03-14T10:37:55;7.32;;;4.78;;
40707;SDS011;26392;42.696;23.350;2023-03-14T10:40:24;9.35;;;4.85;;
40707;SDS011;26392;42.696;23.350;2023-03-14T10:42:57;10.23;;;4.88;;
40707;SDS011;26392;42.696;23.350;2023-03-14T10:45:38;7.50;;;4.80;;
40707;SDS011;26392;42.696;23.350;2023-03-14T10:50:40;14.73;;;4.13;;
40707;SDS011;26392;42.696;23.350;2023-03-14T10:53:16;7.32;;;3.92;;
40707;SDS011;26392;42.696;23.350;2023-03-14T10:55:42;8.15;;;3.63;;
40707;SDS011;26392;42.696;23.350;2023-03-14T10:58:26;11.80;;;4.38;;
40707;SDS011;26392;42.696;23.350;2023-03-14T11:00:57;6.45;;;3.70;;
40707;SDS011;26392;42.696;23.350;2023-03-14T11:03:27;5.50;;;3.20;;
40707;SDS011;26392;42.696;23.350;2023-03-14T11:05:57;7.53;;;3.78;;
40707;SDS011;26392;42.696;23.350;2023-03-14T11:08:24;12.40;;;4.20;;
40707;SDS011;26392;42.696;23.350;2023-03-14T11:11:34;5.10;;;3.38;;
40707;SDS011;26392;42.696;23.350;2023-03-14T11:14:04;5.55;;;3.28;;
40707;SDS011;26392;42.696;23.350;2023-03-14T11:27:44;6.40;;;3.85;;
40707;SDS011;26392;42.696;23.350;2023-03-14T11:32:44;6.28;;;2.80;;
40707;SDS011;26392;42.696;23.350;2023-03-14T11:35:28;4.88;;;3.30;;
40707;SDS011;26392;42.696;23.350;2023-03-14T11:40:29;5.72;;;3.13;;
40707;SDS011;26392;42.696;23.350;2023-03-14T11:43:17;6.80;;;3.10;;
40707;SDS011;26392;42.696;23.350;2023-03-14T11:45:49;3.85;;;3.00;;
40707;SDS011;26392;42.696;23.350;2023-03-14T11:48:19;6.22;;;3.28;;
40707;SDS011;26392;42.696;23.350;2023-03-14T11:50:54;6.68;;;3.33;;
40707;SDS011;26392;42.696;23.350;2023-03-14T11:53:26;9.30;;;3.45;;
40707;SDS011;26392;42.696;23.350;2023-03-14T11:56:19;4.43;;;2.90;;
40707;SDS011;26392;42.696;23.350;2023-03-14T11:59:08;5.65;;;2.55;;
40707;SDS011;26392;42.696;23.350;2023-03-14T12:06:54;5.95;;;2.75;;
40707;SDS011;26392;42.696;23.350;2023-03-14T12:09:22;3.63;;;2.40;;
40707;SDS011;26392;42.696;23.350;2023-03-14T12:11:52;3.75;;;2.50;;
40707;SDS011;26392;42.696;23.350;2023-03-14T12:14:35;2.80;;;1.92;;
40707;SDS011;26392;42.696;23.350;2023-03-14T12:22:46;3.28;;;2.50;;
40707;SDS011;26392;42.696;23.350;2023-03-14T12:27:47;3.95;;;2.28;;
40707;SDS011;26392;42.696;23.350;2023-03-14T12:30:26;8.80;;;2.60;;
40707;SDS011;26392;42.696;23.350;2023-03-14T12:35:48;8.23;;;2.45;;
40707;SDS011;26392;42.696;23.350;2023-03-14T12:38:16;4.05;;;2.38;;
40707;SDS011;26392;42.696;23.350;2023-03-14T12:43:25;4.10;;;2.85;;
40707;SDS011;26392;42.696;23.350;2023-03-14T12:49:24;7.33;;;2.17;;
40707;SDS011;26392;42.696;23.350;2023-03-14T12:51:40;2.58;;;1.90;;
40707;SDS011;26392;42.696;23.350;2023-03-14T12:54:14;12.13;;;2.92;;
40707;SDS011;26392;42.696;23.350;2023-03-14T12:59:46;7.53;;;2.38;;
40707;SDS011;26392;42.696;23.350;2023-03-14T13:02:37;3.78;;;2.10;;
40707;SDS011;26392;42.696;23.350;2023-03-14T13:05:19;4.65;;;2.00;;
40707;SDS011;26392;42.696;23.350;2023-03-14T13:10:19;5.40;;;1.98;;
40707;SDS011;26392;42.696;23.350;2023-03-14T13:13:03;3.25;;;2.08;;
40707;SDS011;26392;42.696;23.350;2023-03-14T13:15:39;6.03;;;1.90;;
40707;SDS011;26392;42.696;23.350;2023-03-14T13:20:35;4.07;;;2.03;;
40707;SDS011;26392;42.696;23.350;2023-03-14T13:23:04;3.22;;;1.85;;
40707;SDS011;26392;42.696;23.350;2023-03-14T13:25:32;3.45;;;2.00;;
40707;SDS011;26392;42.696;23.350;2023-03-14T13:27:58;5.00;;;2.17;;
40707;SDS011;26392;42.696;23.350;2023-03-14T13:30:41;7.40;;;1.70;;
40707;SDS011;26392;42.696;23.350;2023-03-14T13:33:16;3.42;;;2.00;;
40707;SDS011;26392;42.696;23.350;2023-03-14T13:35:45;5.72;;;2.10;;
40707;SDS011;26392;42.696;23.350;2023-03-14T13:38:15;2.10;;;1.40;;
40707;SDS011;26392;42.696;23.350;2023-03-14T13:40:43;3.90;;;2.15;;
40707;SDS011;26392;42.696;23.350;2023-03-14T13:43:14;3.13;;;1.70;;
40707;SDS011;26392;42.696;23.350;2023-03-14T13:48:27;4.38;;;1.80;;
40707;SDS011;26392;42.696;23.350;2023-03-14T13:50:59;5.15;;;2.03;;
40707;SDS011;26392;42.696;23.350;2023-03-14T13:53:26;5.07;;;2.42;;
40707;SDS011;26392;42.696;23.350;2023-03-14T13:55:52;3.33;;;1.77;;
40707;SDS011;26392;42.696;23.350;2023-03-14T14:01:03;4.38;;;2.00;;
40707;SDS011;26392;42.696;23.350;2023-03-14T14:03:36;3.75;;;2.30;;
40707;SDS011;26392;42.696;23.350;2023-03-14T14:06:04;4.05;;;1.80;;
40707;SDS011;26392;42.696;23.350;2023-03-14T14:08:35;6.97;;;2.20;;
40707;SDS011;26392;42.696;23.350;2023-03-14T14:11:05;7.85;;;1.88;;
40707;SDS011;26392;42.696;23.350;2023-03-14T14:13:32;3.03;;;2.10;;
40707;SDS011;26392;42.696;23.350;2023-03-14T14:15:59;3.22;;;2.13;;
40707;SDS011;26392;42.696;23.350;2023-03-14T14:18:28;6.38;;;2.47;;
40707;SDS011;26392;42.696;23.350;2023-03-14T14:20:55;3.72;;;1.80;;
40707;SDS011;26392;42.696;23.350;2023-03-14T14:23:22;4.15;;;1.88;;
40707;SDS011;26392;42.696;23.350;2023-03-14T14:25:52;7.25;;;2.33;;
40707;SDS011;26392;42.696;23.350;2023-03-14T14:28:23;6.78;;;2.30;;
40707;SDS011;26392;42.696;23.350;2023-03-14T14:31:01;8.40;;;2.10;;
40707;SDS011;26392;42.696;23.350;2023-03-14T14:34:01;7.75;;;2.30;;
40707;SDS011;26392;42.696;23.350;2023-03-14T14:36:32;5.45;;;1.85;;
40707;SDS011;26392;42.696;23.350;2023-03-14T14:39:11;6.30;;;2.35;;
40707;SDS011;26392;42.696;23.350;2023-03-14T14:41:40;5.75;;;2.65;;
40707;SDS011;26392;42.696;23.350;2023-03-14T14:44:06;6.60;;;2.45;;
40707;SDS011;26392;42.696;23.350;2023-03-14T14:46:33;4.53;;;1.80;;
40707;SDS011;26392;42.696;23.350;2023-03-14T14:49:06;12.52;;;2.45;;
40707;SDS011;26392;42.696;23.350;2023-03-14T14:51:42;3.10;;;2.00;;
40707;SDS011;26392;42.696;23.350;2023-03-14T14:54:14;2.67;;;2.00;;
40707;SDS011;26392;42.696;23.350;2023-03-14T14:56:40;9.98;;;2.10;;
40707;SDS011;26392;42.696;23.350;2023-03-14T14:59:07;4.45;;;2.05;;
40707;SDS011;26392;42.696;23.350;2023-03-14T15:01:43;4.20;;;2.60;;
40707;SDS011;26392;42.696;23.350;2023-03-14T15:04:10;4.93;;;3.00;;
40707;SDS011;26392;42.696;23.350;2023-03-14T15:06:39;3.70;;;2.70;;
40707;SDS011;26392;42.696;23.350;2023-03-14T15:09:08;5.10;;;2.33;;
40707;SDS011;26392;42.696;23.350;2023-03-14T15:11:35;6.75;;;3.10;;
40707;SDS011;26392;42.696;23.350;2023-03-14T15:14:01;6.50;;;2.70;;
40707;SDS011;26392;42.696;23.350;2023-03-14T15:16:29;6.40;;;2.80;;
40707;SDS011;26392;42.696;23.350;2023-03-14T15:19:00;5.28;;;2.97;;
40707;SDS011;26392;42.696;23.350;2023-03-14T15:21:30;4.70;;;3.40;;
40707;SDS011;26392;42.696;23.350;2023-03-14T15:23:56;6.88;;;3.08;;
40707;SDS011;26392;42.696;23.350;2023-03-14T15:26:25;7.68;;;3.92;;
40707;SDS011;26392;42.696;23.350;2023-03-14T15:28:52;9.15;;;3.20;;
40707;SDS011;26392;42.696;23.350;2023-03-14T15:31:19;5.32;;;2.88;;
40707;SDS011;26392;42.696;23.350;2023-03-14T15:33:48;12.63;;;3.05;;
40707;SDS011;26392;42.696;23.350;2023-03-14T15:38:50;7.38;;;3.42;;
40707;SDS011;26392;42.696;23.350;2023-03-14T15:41:17;9.15;;;3.97;;
40707;SDS011;26392;42.696;23.350;2023-03-14T15:43:43;12.18;;;4.15;;